Nearby METAR Reports

 

EGMC - Southend-On-Sea, United Kingdom
Distance from station: NE 10km
Updated: 17/08/2018 12:20
Partly cloudy
Partly cloudy
 Wind from WSW
Wind: WSW 12 mph , 19 km/h
Temperature: 20°C
Dew Point: 10°C
Humidity: 53%
Barometer: 1019 hPa
Clouds: Partly cloudy
Visibility: 6 miles , 10 km
Cloud details: Partly cloudy 1158 m
2018/08/17 11:20 EGMC 171120Z 24010KT 9999 SCT038 20/10 Q1019
EGLC - London City Airp, United Kingdom
Distance from station: W 37km
Updated: 17/08/2018 12:20
Few Clouds
Few Clouds
 Wind from WSW
Wind: WSW 9 mph , 15 km/h
Temperature: 21°C
Dew Point: 10°C
Humidity: 50%
Barometer: 1020 hPa
Clouds: Few Clouds
Visibility: 6 miles , 10 km
Cloud details: Few Clouds 1311 m
2018/08/17 11:20 EGLC 171120Z AUTO 24008KT 190V280 9999 FEW043 21/10 Q1020
EGKB - Biggin Hill, United Kingdom
Distance from station: WSW 45km
Updated: 17/08/2018 12:20
Few Clouds
Few Clouds
 Wind from WSW
Wind: WSW 8 mph , 13 km/h
Temperature: 18°C
Dew Point: 10°C
Humidity: 60%
Barometer: 1021 hPa
Clouds: Few Clouds
Visibility: 6 miles , 10 km
Cloud details: Few Clouds 1067 m
2018/08/17 11:20 EGKB 171120Z 24007KT 200V280 9999 FEW035 18/10 Q1021
 
EGSS - Stansted Airport, United Kingdom
Distance from station: NNW 48km
Updated: 17/08/2018 12:20
Partly cloudy
Partly cloudy
 Wind from SW
Wind: SW 12 mph , 19 km/h
Temperature: 20°C
Dew Point: 10°C
Humidity: 53%
Barometer: 1020 hPa
Clouds: Partly cloudy
Visibility: 6 miles , 10 km
Cloud details: Partly cloudy 1250 m
Partly cloudy 1433 m
2018/08/17 11:20 EGSS 171120Z 23010KT 9999 SCT041 SCT047 20/10 Q1020
EGKK - London/Gatwick A, United Kingdom
Distance from station: SW 67km
Updated: 17/08/2018 12:20
Partly cloudy
Partly cloudy
 Wind from WSW
Wind: WSW 6 mph , 9 km/h
Temperature: 19°C
Dew Point: 12°C
Humidity: 64%
Barometer: 1021 hPa
Clouds: Partly cloudy
Visibility: 6 miles , 10 km
Cloud details: Partly cloudy 975 m
2018/08/17 11:20 EGKK 171120Z 24005KT 190V270 9999 SCT032 19/12 Q1021
EGMD - Lydd Airport, United Kingdom
Distance from station: SSE 67km
Updated: 17/08/2018 11:50
Few Clouds
Few Clouds
 Wind from SSW
Wind: SSW 13 mph , 20 km/h
Temperature: 20°C
Dew Point: 13°C
Humidity: 64%
Barometer: 1021 hPa
Clouds: Few Clouds
Visibility: 6 miles , 10 km
Cloud details: Few Clouds 914 m
2018/08/17 10:50 EGMD 171050Z 21011KT 180V240 9999 FEW030 20/13 Q1021
 
EGWU - Northolt Raf, United Kingdom
Distance from station: W 69km
Updated: 17/08/2018 11:50
Mostly cloudy
Mostly cloudy
 Wind from W
Wind: W 12 mph , 19 km/h
Temperature: 20°C
Dew Point: 10°C
Humidity: 53%
Barometer: 1020 hPa
Clouds: Mostly cloudy
Visibility: 6 miles , 10 km
Cloud details: Few Clouds 1158 m
Mostly cloudy 7620 m
2018/08/17 10:50 EGWU 171050Z 27010KT 9999 FEW038 BKN250 20/10 Q1020 BLU NOSIG
EGLL - London/Heathrow, United Kingdom
Distance from station: W 72km
Updated: 17/08/2018 12:20
Mostly cloudy
Mostly cloudy
 Wind from WSW
Wind: WSW 12 mph , 19 km/h
Temperature: 20°C
Dew Point: 10°C
Humidity: 53%
Barometer: 1021 hPa
Clouds: Mostly cloudy
Visibility: 6 miles , 10 km
Cloud details: Few Clouds 1189 m
Mostly cloudy 1433 m
2018/08/17 11:20 EGLL 171120Z AUTO 24010KT 220V280 9999 FEW039 BKN047 20/10 Q1021 NOSIG
EGUW - Wattisham Raf, United Kingdom
Distance from station: NNE 72km
Updated: 17/08/2018 11:50
Few Clouds
Few Clouds
 Wind from WSW
Wind: WSW 9 mph , 15 km/h
Temperature: 19°C
Dew Point: 10°C
Humidity: 56%
Barometer: 1019 hPa
Clouds: Few Clouds
Visibility: 6 miles , 10 km
Cloud details: Few Clouds 1036 m
2018/08/17 10:50 EGUW 171050Z 25008KT 9999 FEW034 19/10 Q1019 BLU NOSIG
 
EGGW - Luton Airport, United Kingdom
Distance from station: WNW 76km
Updated: 17/08/2018 12:20
Mostly cloudy
Mostly cloudy
 Wind from WSW
Wind: WSW 13 mph , 20 km/h, Gust: 31 mph , 50 km/h
Temperature: 19°C
Dew Point: 9°C
Humidity: 52%
Barometer: 1020 hPa
Clouds: Mostly cloudy
Visibility: 6 miles , 10 km
Cloud details: Mostly cloudy 975 m
2018/08/17 11:20 EGGW 171120Z AUTO 24011G27KT 200V270 9999 BKN032 19/09 Q1020
EGSC - Cambridge, United Kingdom
Distance from station: NNW 81km
Updated: 17/08/2018 12:20
Partly cloudy
Partly cloudy
 Wind from W
Wind: W 9 mph , 15 km/h
Temperature: 20°C
Dew Point: 9°C
Humidity: 49%
Barometer: 1019 hPa
Clouds: Partly cloudy
Visibility: 6 miles , 10 km
Cloud details: Partly cloudy 1158 m
2018/08/17 11:20 EGSC 171120Z 26008KT 190V300 9999 SCT038 20/09 Q1019